sensor_id;sensor_type;location;lat;lon;timestamp;temperature;humidity
14682;DHT22;7429;52.498;13.480;2023-02-26T00:01:23;0.20;99.90
14682;DHT22;7429;52.498;13.480;2023-02-26T00:04:27;0.20;99.90
14682;DHT22;7429;52.498;13.480;2023-02-26T00:07:31;0.20;99.90
14682;DHT22;7429;52.498;13.480;2023-02-26T00:10:35;0.30;99.90
14682;DHT22;7429;52.498;13.480;2023-02-26T00:13:41;0.20;99.90
14682;DHT22;7429;52.498;13.480;2023-02-26T00:16:48;0.20;99.90
14682;DHT22;7429;52.498;13.480;2023-02-26T00:19:54;0.30;99.90
14682;DHT22;7429;52.498;13.480;2023-02-26T00:22:58;0.20;99.90
14682;DHT22;7429;52.498;13.480;2023-02-26T00:26:02;0.20;99.90
14682;DHT22;7429;52.498;13.480;2023-02-26T00:29:07;0.30;99.90
14682;DHT22;7429;52.498;13.480;2023-02-26T00:32:11;0.30;99.90
14682;DHT22;7429;52.498;13.480;2023-02-26T00:35:16;0.30;99.90
14682;DHT22;7429;52.498;13.480;2023-02-26T00:38:20;0.30;99.90
14682;DHT22;7429;52.498;13.480;2023-02-26T00:41:24;0.20;99.90
14682;DHT22;7429;52.498;13.480;2023-02-26T00:44:30;0.30;99.90
14682;DHT22;7429;52.498;13.480;2023-02-26T00:47:41;0.30;99.90
14682;DHT22;7429;52.498;13.480;2023-02-26T00:50:56;0.30;99.90
14682;DHT22;7429;52.498;13.480;2023-02-26T00:54:06;0.30;99.90
14682;DHT22;7429;52.498;13.480;2023-02-26T00:57:11;0.30;99.90
14682;DHT22;7429;52.498;13.480;2023-02-26T01:00:19;0.30;99.90
14682;DHT22;7429;52.498;13.480;2023-02-26T01:03:23;0.30;99.90
14682;DHT22;7429;52.498;13.480;2023-02-26T01:06:29;0.30;99.90
14682;DHT22;7429;52.498;13.480;2023-02-26T01:09:36;0.30;99.90
14682;DHT22;7429;52.498;13.480;2023-02-26T01:12:40;0.30;99.90
14682;DHT22;7429;52.498;13.480;2023-02-26T01:15:47;0.30;99.90
14682;DHT22;7429;52.498;13.480;2023-02-26T01:18:57;0.40;99.90
14682;DHT22;7429;52.498;13.480;2023-02-26T01:22:10;0.40;99.90
14682;DHT22;7429;52.498;13.480;2023-02-26T01:25:17;0.40;99.90
14682;DHT22;7429;52.498;13.480;2023-02-26T01:28:26;0.40;99.90
14682;DHT22;7429;52.498;13.480;2023-02-26T01:31:37;0.40;99.90
14682;DHT22;7429;52.498;13.480;2023-02-26T01:34:46;0.40;99.90
14682;DHT22;7429;52.498;13.480;2023-02-26T01:37:56;0.40;99.90
14682;DHT22;7429;52.498;13.480;2023-02-26T01:41:14;0.40;99.90
14682;DHT22;7429;52.498;13.480;2023-02-26T01:44:26;0.40;99.90
14682;DHT22;7429;52.498;13.480;2023-02-26T01:47:39;0.40;99.90
14682;DHT22;7429;52.498;13.480;2023-02-26T01:50:44;0.50;99.90
14682;DHT22;7429;52.498;13.480;2023-02-26T01:53:47;0.40;99.90
14682;DHT22;7429;52.498;13.480;2023-02-26T01:56:56;0.40;99.90
14682;DHT22;7429;52.498;13.480;2023-02-26T02:00:04;0.50;99.90
14682;DHT22;7429;52.498;13.480;2023-02-26T02:03:14;0.50;99.90
14682;DHT22;7429;52.498;13.480;2023-02-26T02:06:21;0.60;99.90
14682;DHT22;7429;52.498;13.480;2023-02-26T02:09:26;0.50;99.90
14682;DHT22;7429;52.498;13.480;2023-02-26T02:12:34;0.50;99.90
14682;DHT22;7429;52.498;13.480;2023-02-26T02:15:44;0.50;99.90
14682;DHT22;7429;52.498;13.480;2023-02-26T02:19:03;0.50;99.90
14682;DHT22;7429;52.498;13.480;2023-02-26T02:22:30;0.50;99.90
14682;DHT22;7429;52.498;13.480;2023-02-26T02:25:53;0.60;99.90
14682;DHT22;7429;52.498;13.480;2023-02-26T02:29:27;0.50;99.90
14682;DHT22;7429;52.498;13.480;2023-02-26T02:32:51;0.60;99.90
14682;DHT22;7429;52.498;13.480;2023-02-26T02:36:02;0.50;99.90
14682;DHT22;7429;52.498;13.480;2023-02-26T02:39:10;0.60;99.90
14682;DHT22;7429;52.498;13.480;2023-02-26T02:42:25;0.50;99.90
14682;DHT22;7429;52.498;13.480;2023-02-26T02:45:36;0.50;99.90
14682;DHT22;7429;52.498;13.480;2023-02-26T02:48:45;0.50;99.90
14682;DHT22;7429;52.498;13.480;2023-02-26T02:51:51;0.50;99.90
14682;DHT22;7429;52.498;13.480;2023-02-26T02:55:00;0.60;99.90
14682;DHT22;7429;52.498;13.480;2023-02-26T02:58:07;0.60;99.90
14682;DHT22;7429;52.498;13.480;2023-02-26T03:01:16;0.60;99.90
14682;DHT22;7429;52.498;13.480;2023-02-26T03:04:23;0.50;99.90
14682;DHT22;7429;52.498;13.480;2023-02-26T03:07:27;0.60;99.90
14682;DHT22;7429;52.498;13.480;2023-02-26T03:10:32;0.60;99.90
14682;DHT22;7429;52.498;13.480;2023-02-26T03:13:37;0.50;99.90
14682;DHT22;7429;52.498;13.480;2023-02-26T03:17:05;0.50;99.90
14682;DHT22;7429;52.498;13.480;2023-02-26T03:20:24;0.50;99.90
14682;DHT22;7429;52.498;13.480;2023-02-26T03:23:32;0.50;99.90
14682;DHT22;7429;52.498;13.480;2023-02-26T03:26:41;0.50;99.90
14682;DHT22;7429;52.498;13.480;2023-02-26T03:29:53;0.50;99.90
14682;DHT22;7429;52.498;13.480;2023-02-26T03:33:03;0.50;99.90
14682;DHT22;7429;52.498;13.480;2023-02-26T03:36:12;0.50;99.90
14682;DHT22;7429;52.498;13.480;2023-02-26T03:39:32;0.40;99.90
14682;DHT22;7429;52.498;13.480;2023-02-26T03:42:44;0.50;99.90
14682;DHT22;7429;52.498;13.480;2023-02-26T03:45:51;0.50;99.90
14682;DHT22;7429;52.498;13.480;2023-02-26T03:49:02;0.40;99.90
14682;DHT22;7429;52.498;13.480;2023-02-26T03:52:10;0.40;99.90
14682;DHT22;7429;52.498;13.480;2023-02-26T03:55:34;0.50;99.90
14682;DHT22;7429;52.498;13.480;2023-02-26T03:58:57;0.50;99.90
14682;DHT22;7429;52.498;13.480;2023-02-26T04:02:03;0.50;99.90
14682;DHT22;7429;52.498;13.480;2023-02-26T04:05:13;0.50;99.90
14682;DHT22;7429;52.498;13.480;2023-02-26T04:08:21;0.50;99.90
14682;DHT22;7429;52.498;13.480;2023-02-26T04:11:26;0.50;99.90
14682;DHT22;7429;52.498;13.480;2023-02-26T04:14:29;0.50;99.90
14682;DHT22;7429;52.498;13.480;2023-02-26T04:17:36;0.50;99.90
14682;DHT22;7429;52.498;13.480;2023-02-26T04:20:41;0.50;99.90
14682;DHT22;7429;52.498;13.480;2023-02-26T04:23:49;0.50;99.90
14682;DHT22;7429;52.498;13.480;2023-02-26T04:26:55;0.50;99.90
14682;DHT22;7429;52.498;13.480;2023-02-26T04:29:58;0.50;99.90
14682;DHT22;7429;52.498;13.480;2023-02-26T04:33:02;0.50;99.90
14682;DHT22;7429;52.498;13.480;2023-02-26T04:36:05;0.50;99.90
14682;DHT22;7429;52.498;13.480;2023-02-26T04:39:11;0.50;99.90
14682;DHT22;7429;52.498;13.480;2023-02-26T04:42:14;0.60;99.90
14682;DHT22;7429;52.498;13.480;2023-02-26T04:45:18;0.70;99.90
14682;DHT22;7429;52.498;13.480;2023-02-26T04:48:21;0.60;99.90
14682;DHT22;7429;52.498;13.480;2023-02-26T04:51:25;0.60;99.90
14682;DHT22;7429;52.498;13.480;2023-02-26T04:54:29;0.60;99.90
14682;DHT22;7429;52.498;13.480;2023-02-26T04:57:32;0.60;99.90
14682;DHT22;7429;52.498;13.480;2023-02-26T05:00:35;0.60;99.90
14682;DHT22;7429;52.498;13.480;2023-02-26T05:03:39;0.50;99.90
14682;DHT22;7429;52.498;13.480;2023-02-26T05:06:43;0.60;99.90
14682;DHT22;7429;52.498;13.480;2023-02-26T05:09:48;0.60;99.90
14682;DHT22;7429;52.498;13.480;2023-02-26T05:12:52;0.60;99.90
14682;DHT22;7429;52.498;13.480;2023-02-26T05:15:55;0.60;99.90
14682;DHT22;7429;52.498;13.480;2023-02-26T05:18:58;0.60;99.90
14682;DHT22;7429;52.498;13.480;2023-02-26T05:22:02;0.60;99.90
14682;DHT22;7429;52.498;13.480;2023-02-26T05:25:07;0.60;99.90
14682;DHT22;7429;52.498;13.480;2023-02-26T05:28:11;0.60;99.90
14682;DHT22;7429;52.498;13.480;2023-02-26T05:31:14;0.60;99.90
14682;DHT22;7429;52.498;13.480;2023-02-26T05:34:17;0.70;99.90
14682;DHT22;7429;52.498;13.480;2023-02-26T05:37:20;0.60;99.90
14682;DHT22;7429;52.498;13.480;2023-02-26T05:40:25;0.60;99.90
14682;DHT22;7429;52.498;13.480;2023-02-26T05:43:28;0.60;99.90
14682;DHT22;7429;52.498;13.480;2023-02-26T05:46:31;0.70;99.90
14682;DHT22;7429;52.498;13.480;2023-02-26T05:49:34;0.60;99.90
14682;DHT22;7429;52.498;13.480;2023-02-26T05:52:37;0.70;99.90
14682;DHT22;7429;52.498;13.480;2023-02-26T05:55:42;0.70;99.90
14682;DHT22;7429;52.498;13.480;2023-02-26T05:58:45;0.60;99.90
14682;DHT22;7429;52.498;13.480;2023-02-26T06:01:48;0.70;99.90
14682;DHT22;7429;52.498;13.480;2023-02-26T06:04:51;0.70;99.90
14682;DHT22;7429;52.498;13.480;2023-02-26T06:07:58;0.70;99.90
14682;DHT22;7429;52.498;13.480;2023-02-26T06:11:02;0.70;99.90
14682;DHT22;7429;52.498;13.480;2023-02-26T06:14:06;0.70;99.90
14682;DHT22;7429;52.498;13.480;2023-02-26T06:17:09;0.70;99.90
14682;DHT22;7429;52.498;13.480;2023-02-26T06:20:12;0.60;99.90
14682;DHT22;7429;52.498;13.480;2023-02-26T06:23:15;0.70;99.90
14682;DHT22;7429;52.498;13.480;2023-02-26T06:26:22;0.70;99.90
14682;DHT22;7429;52.498;13.480;2023-02-26T06:29:26;0.70;99.90
14682;DHT22;7429;52.498;13.480;2023-02-26T06:32:29;0.70;99.90
14682;DHT22;7429;52.498;13.480;2023-02-26T06:35:32;0.70;99.90
14682;DHT22;7429;52.498;13.480;2023-02-26T06:38:35;0.70;99.90
14682;DHT22;7429;52.498;13.480;2023-02-26T06:41:40;0.70;99.90
14682;DHT22;7429;52.498;13.480;2023-02-26T06:44:43;0.70;99.90
14682;DHT22;7429;52.498;13.480;2023-02-26T06:47:46;0.70;99.90
14682;DHT22;7429;52.498;13.480;2023-02-26T06:50:49;0.70;99.90
14682;DHT22;7429;52.498;13.480;2023-02-26T06:53:52;0.70;99.90
14682;DHT22;7429;52.498;13.480;2023-02-26T06:56:57;0.70;99.90
14682;DHT22;7429;52.498;13.480;2023-02-26T07:00:01;0.70;99.90
14682;DHT22;7429;52.498;13.480;2023-02-26T07:03:05;0.80;99.90
14682;DHT22;7429;52.498;13.480;2023-02-26T07:06:09;0.80;99.90
14682;DHT22;7429;52.498;13.480;2023-02-26T07:09:29;0.80;99.90
14682;DHT22;7429;52.498;13.480;2023-02-26T07:12:33;0.90;99.90
14682;DHT22;7429;52.498;13.480;2023-02-26T07:15:37;0.90;99.90
14682;DHT22;7429;52.498;13.480;2023-02-26T07:18:40;1.00;99.90
14682;DHT22;7429;52.498;13.480;2023-02-26T07:21:43;1.00;99.90
14682;DHT22;7429;52.498;13.480;2023-02-26T07:24:46;1.10;99.90
14682;DHT22;7429;52.498;13.480;2023-02-26T07:27:51;1.20;99.90
14682;DHT22;7429;52.498;13.480;2023-02-26T07:30:56;1.20;99.90
14682;DHT22;7429;52.498;13.480;2023-02-26T07:33:59;1.20;99.90
14682;DHT22;7429;52.498;13.480;2023-02-26T07:37:02;1.20;99.90
14682;DHT22;7429;52.498;13.480;2023-02-26T07:40:06;1.20;99.90
14682;DHT22;7429;52.498;13.480;2023-02-26T07:43:12;1.10;99.90
14682;DHT22;7429;52.498;13.480;2023-02-26T07:46:15;1.10;99.90
14682;DHT22;7429;52.498;13.480;2023-02-26T07:49:18;1.10;99.90
14682;DHT22;7429;52.498;13.480;2023-02-26T07:52:22;1.10;99.90
14682;DHT22;7429;52.498;13.480;2023-02-26T07:55:25;1.20;99.90
14682;DHT22;7429;52.498;13.480;2023-02-26T07:58:30;1.20;99.90
14682;DHT22;7429;52.498;13.480;2023-02-26T08:01:33;1.20;99.90
14682;DHT22;7429;52.498;13.480;2023-02-26T08:04:37;1.30;99.90
14682;DHT22;7429;52.498;13.480;2023-02-26T08:07:40;1.30;99.90
14682;DHT22;7429;52.498;13.480;2023-02-26T08:10:43;1.30;99.90
14682;DHT22;7429;52.498;13.480;2023-02-26T08:13:47;1.30;99.90
14682;DHT22;7429;52.498;13.480;2023-02-26T08:16:50;1.30;99.90
14682;DHT22;7429;52.498;13.480;2023-02-26T08:19:54;1.30;99.90
14682;DHT22;7429;52.498;13.480;2023-02-26T08:22:57;1.30;99.90
14682;DHT22;7429;52.498;13.480;2023-02-26T08:26:00;1.40;99.90
14682;DHT22;7429;52.498;13.480;2023-02-26T08:29:07;1.40;99.90
14682;DHT22;7429;52.498;13.480;2023-02-26T08:32:10;1.40;99.90
14682;DHT22;7429;52.498;13.480;2023-02-26T08:35:13;1.50;99.90
14682;DHT22;7429;52.498;13.480;2023-02-26T08:38:17;1.50;99.90
14682;DHT22;7429;52.498;13.480;2023-02-26T08:41:20;1.60;99.90
14682;DHT22;7429;52.498;13.480;2023-02-26T08:44:25;1.60;99.90
14682;DHT22;7429;52.498;13.480;2023-02-26T08:47:28;1.60;99.90
14682;DHT22;7429;52.498;13.480;2023-02-26T08:50:32;1.70;99.90
14682;DHT22;7429;52.498;13.480;2023-02-26T08:53:35;1.70;99.90
14682;DHT22;7429;52.498;13.480;2023-02-26T08:56:39;1.70;99.90
14682;DHT22;7429;52.498;13.480;2023-02-26T08:59:43;1.70;99.90
14682;DHT22;7429;52.498;13.480;2023-02-26T09:02:47;1.80;99.90
14682;DHT22;7429;52.498;13.480;2023-02-26T09:05:50;1.80;99.90
14682;DHT22;7429;52.498;13.480;2023-02-26T09:08:53;1.80;99.90
14682;DHT22;7429;52.498;13.480;2023-02-26T09:11:56;1.80;99.90
14682;DHT22;7429;52.498;13.480;2023-02-26T09:15:01;1.90;99.90
14682;DHT22;7429;52.498;13.480;2023-02-26T09:18:05;2.10;99.90
14682;DHT22;7429;52.498;13.480;2023-02-26T09:21:08;2.20;99.90
14682;DHT22;7429;52.498;13.480;2023-02-26T09:24:11;2.20;99.90
14682;DHT22;7429;52.498;13.480;2023-02-26T09:27:14;2.30;99.90
14682;DHT22;7429;52.498;13.480;2023-02-26T09:30:19;2.30;99.90
14682;DHT22;7429;52.498;13.480;2023-02-26T09:33:22;2.50;99.90
14682;DHT22;7429;52.498;13.480;2023-02-26T09:36:26;2.50;99.90
14682;DHT22;7429;52.498;13.480;2023-02-26T09:39:32;2.60;99.90
14682;DHT22;7429;52.498;13.480;2023-02-26T09:42:50;2.60;99.90
14682;DHT22;7429;52.498;13.480;2023-02-26T09:46:08;2.80;99.90
14682;DHT22;7429;52.498;13.480;2023-02-26T09:49:22;2.80;99.90
14682;DHT22;7429;52.498;13.480;2023-02-26T09:52:35;2.60;99.90
14682;DHT22;7429;52.498;13.480;2023-02-26T09:55:42;2.50;99.90
14682;DHT22;7429;52.498;13.480;2023-02-26T09:58:49;2.30;99.90
14682;DHT22;7429;52.498;13.480;2023-02-26T10:01:58;2.40;99.90
14682;DHT22;7429;52.498;13.480;2023-02-26T10:05:15;2.50;99.90
14682;DHT22;7429;52.498;13.480;2023-02-26T10:08:21;2.50;99.90
14682;DHT22;7429;52.498;13.480;2023-02-26T10:11:33;2.70;99.90
14682;DHT22;7429;52.498;13.480;2023-02-26T10:14:45;2.90;99.90
14682;DHT22;7429;52.498;13.480;2023-02-26T10:18:08;3.30;99.90
14682;DHT22;7429;52.498;13.480;2023-02-26T10:21:16;3.50;99.90
14682;DHT22;7429;52.498;13.480;2023-02-26T10:24:27;3.50;99.90
14682;DHT22;7429;52.498;13.480;2023-02-26T10:27:42;3.50;99.90
14682;DHT22;7429;52.498;13.480;2023-02-26T10:30:54;3.50;99.90
14682;DHT22;7429;52.498;13.480;2023-02-26T10:34:10;3.60;99.90
14682;DHT22;7429;52.498;13.480;2023-02-26T10:37:19;3.60;99.90
14682;DHT22;7429;52.498;13.480;2023-02-26T10:40:30;3.50;99.90
14682;DHT22;7429;52.498;13.480;2023-02-26T10:43:39;3.60;99.90
14682;DHT22;7429;52.498;13.480;2023-02-26T10:46:50;3.50;99.90
14682;DHT22;7429;52.498;13.480;2023-02-26T10:50:01;3.50;99.90
14682;DHT22;7429;52.498;13.480;2023-02-26T10:53:09;3.40;99.90
14682;DHT22;7429;52.498;13.480;2023-02-26T10:56:17;3.50;99.90
14682;DHT22;7429;52.498;13.480;2023-02-26T10:59:23;3.70;99.90
14682;DHT22;7429;52.498;13.480;2023-02-26T11:02:56;3.60;99.90
14682;DHT22;7429;52.498;13.480;2023-02-26T11:06:02;3.70;99.90
14682;DHT22;7429;52.498;13.480;2023-02-26T11:09:19;3.90;99.90
14682;DHT22;7429;52.498;13.480;2023-02-26T11:12:24;4.10;99.90
14682;DHT22;7429;52.498;13.480;2023-02-26T11:15:29;4.10;99.90
14682;DHT22;7429;52.498;13.480;2023-02-26T11:18:39;4.10;99.90
14682;DHT22;7429;52.498;13.480;2023-02-26T11:21:46;4.20;99.90
14682;DHT22;7429;52.498;13.480;2023-02-26T11:24:50;4.40;99.90
14682;DHT22;7429;52.498;13.480;2023-02-26T11:28:00;4.20;99.90
14682;DHT22;7429;52.498;13.480;2023-02-26T11:31:10;3.90;99.90
14682;DHT22;7429;52.498;13.480;2023-02-26T11:34:23;3.80;99.90
14682;DHT22;7429;52.498;13.480;2023-02-26T11:38:26;3.70;99.90
14682;DHT22;7429;52.498;13.480;2023-02-26T11:41:35;3.70;99.90
14682;DHT22;7429;52.498;13.480;2023-02-26T11:44:41;3.70;99.90
14682;DHT22;7429;52.498;13.480;2023-02-26T11:47:57;4.20;99.90
14682;DHT22;7429;52.498;13.480;2023-02-26T11:51:04;4.40;99.90
14682;DHT22;7429;52.498;13.480;2023-02-26T11:54:19;4.40;99.90
14682;DHT22;7429;52.498;13.480;2023-02-26T11:57:25;4.30;99.90
14682;DHT22;7429;52.498;13.480;2023-02-26T12:00:31;4.40;99.90
14682;DHT22;7429;52.498;13.480;2023-02-26T12:03:37;4.10;99.90
14682;DHT22;7429;52.498;13.480;2023-02-26T12:06:41;4.00;99.90
14682;DHT22;7429;52.498;13.480;2023-02-26T12:09:46;4.00;99.90
14682;DHT22;7429;52.498;13.480;2023-02-26T12:12:57;3.80;99.90
14682;DHT22;7429;52.498;13.480;2023-02-26T12:16:17;3.80;99.90
14682;DHT22;7429;52.498;13.480;2023-02-26T12:19:34;3.80;99.90
14682;DHT22;7429;52.498;13.480;2023-02-26T12:22:48;3.90;99.90
14682;DHT22;7429;52.498;13.480;2023-02-26T12:29:39;4.30;99.90
14682;DHT22;7429;52.498;13.480;2023-02-26T12:33:00;4.50;99.90
14682;DHT22;7429;52.498;13.480;2023-02-26T12:36:25;4.80;99.90
14682;DHT22;7429;52.498;13.480;2023-02-26T12:39:58;4.70;99.90
14682;DHT22;7429;52.498;13.480;2023-02-26T12:43:10;4.70;99.90
14682;DHT22;7429;52.498;13.480;2023-02-26T12:46:41;4.60;99.90
14682;DHT22;7429;52.498;13.480;2023-02-26T12:50:02;4.80;99.90
14682;DHT22;7429;52.498;13.480;2023-02-26T12:53:34;5.00;99.90
14682;DHT22;7429;52.498;13.480;2023-02-26T12:57:18;4.50;99.90
14682;DHT22;7429;52.498;13.480;2023-02-26T13:00:48;4.30;99.90
14682;DHT22;7429;52.498;13.480;2023-02-26T13:04:12;4.40;99.90
14682;DHT22;7429;52.498;13.480;2023-02-26T13:07:36;4.60;99.90
14682;DHT22;7429;52.498;13.480;2023-02-26T13:11:02;5.00;99.90
14682;DHT22;7429;52.498;13.480;2023-02-26T13:14:24;4.80;99.90
14682;DHT22;7429;52.498;13.480;2023-02-26T13:17:36;4.90;99.90
14682;DHT22;7429;52.498;13.480;2023-02-26T13:20:51;5.20;99.90
14682;DHT22;7429;52.498;13.480;2023-02-26T13:24:04;5.70;99.90
14682;DHT22;7429;52.498;13.480;2023-02-26T13:27:11;5.70;99.90
14682;DHT22;7429;52.498;13.480;2023-02-26T13:30:21;5.20;99.90
14682;DHT22;7429;52.498;13.480;2023-02-26T13:33:29;4.80;99.90
14682;DHT22;7429;52.498;13.480;2023-02-26T13:36:33;4.40;99.90
14682;DHT22;7429;52.498;13.480;2023-02-26T13:39:44;4.30;99.90
14682;DHT22;7429;52.498;13.480;2023-02-26T13:42:55;4.10;99.90
14682;DHT22;7429;52.498;13.480;2023-02-26T13:46:11;4.10;99.90
14682;DHT22;7429;52.498;13.480;2023-02-26T13:49:28;4.20;99.90
14682;DHT22;7429;52.498;13.480;2023-02-26T13:52:34;4.30;99.90
14682;DHT22;7429;52.498;13.480;2023-02-26T13:55:44;4.40;99.90
14682;DHT22;7429;52.498;13.480;2023-02-26T13:58:51;4.20;99.90
14682;DHT22;7429;52.498;13.480;2023-02-26T14:02:00;3.90;99.90
14682;DHT22;7429;52.498;13.480;2023-02-26T14:08:45;3.80;99.90
14682;DHT22;7429;52.498;13.480;2023-02-26T14:11:58;3.80;99.90
14682;DHT22;7429;52.498;13.480;2023-02-26T14:15:30;3.90;99.90
14682;DHT22;7429;52.498;13.480;2023-02-26T14:18:49;4.00;99.90
14682;DHT22;7429;52.498;13.480;2023-02-26T14:21:55;4.30;99.90
14682;DHT22;7429;52.498;13.480;2023-02-26T14:25:12;4.80;99.90
14682;DHT22;7429;52.498;13.480;2023-02-26T14:28:29;4.80;99.90
14682;DHT22;7429;52.498;13.480;2023-02-26T14:32:13;4.70;99.90
14682;DHT22;7429;52.498;13.480;2023-02-26T14:35:20;4.50;99.90
14682;DHT22;7429;52.498;13.480;2023-02-26T14:38:27;4.30;99.90
14682;DHT22;7429;52.498;13.480;2023-02-26T14:41:37;4.10;99.90
14682;DHT22;7429;52.498;13.480;2023-02-26T14:44:42;3.90;99.90
14682;DHT22;7429;52.498;13.480;2023-02-26T14:47:48;3.80;99.90
14682;DHT22;7429;52.498;13.480;2023-02-26T14:51:04;3.70;99.90
14682;DHT22;7429;52.498;13.480;2023-02-26T14:54:42;4.00;99.90
14682;DHT22;7429;52.498;13.480;2023-02-26T14:57:58;4.10;99.90
14682;DHT22;7429;52.498;13.480;2023-02-26T15:01:19;4.00;99.90
14682;DHT22;7429;52.498;13.480;2023-02-26T15:08:35;3.70;99.90
14682;DHT22;7429;52.498;13.480;2023-02-26T15:11:53;3.60;99.90
14682;DHT22;7429;52.498;13.480;2023-02-26T15:15:17;3.60;99.90
14682;DHT22;7429;52.498;13.480;2023-02-26T15:18:42;3.50;99.90
14682;DHT22;7429;52.498;13.480;2023-02-26T15:22:02;3.50;99.90
14682;DHT22;7429;52.498;13.480;2023-02-26T15:25:18;3.60;99.90
14682;DHT22;7429;52.498;13.480;2023-02-26T15:28:31;3.70;99.90
14682;DHT22;7429;52.498;13.480;2023-02-26T15:31:41;3.70;99.90
14682;DHT22;7429;52.498;13.480;2023-02-26T15:34:46;3.70;99.90
14682;DHT22;7429;52.498;13.480;2023-02-26T15:37:52;3.70;99.90
14682;DHT22;7429;52.498;13.480;2023-02-26T15:41:01;3.70;99.90
14682;DHT22;7429;52.498;13.480;2023-02-26T15:44:08;3.60;99.90
14682;DHT22;7429;52.498;13.480;2023-02-26T15:47:15;3.50;99.90
14682;DHT22;7429;52.498;13.480;2023-02-26T15:50:21;3.60;99.90
14682;DHT22;7429;52.498;13.480;2023-02-26T15:53:30;3.50;99.90
14682;DHT22;7429;52.498;13.480;2023-02-26T15:56:36;3.40;99.90
14682;DHT22;7429;52.498;13.480;2023-02-26T15:59:44;3.30;99.90
14682;DHT22;7429;52.498;13.480;2023-02-26T16:02:49;3.20;99.90
14682;DHT22;7429;52.498;13.480;2023-02-26T16:05:54;3.10;99.90
14682;DHT22;7429;52.498;13.480;2023-02-26T16:09:01;3.10;99.90
14682;DHT22;7429;52.498;13.480;2023-02-26T16:12:08;3.10;99.90
14682;DHT22;7429;52.498;13.480;2023-02-26T16:15:16;3.00;99.90
14682;DHT22;7429;52.498;13.480;2023-02-26T16:18:23;3.00;99.90
14682;DHT22;7429;52.498;13.480;2023-02-26T16:21:30;2.90;99.90
14682;DHT22;7429;52.498;13.480;2023-02-26T16:24:37;2.90;99.90
14682;DHT22;7429;52.498;13.480;2023-02-26T16:27:41;2.80;99.90
14682;DHT22;7429;52.498;13.480;2023-02-26T16:30:51;2.70;99.90
14682;DHT22;7429;52.498;13.480;2023-02-26T16:33:58;2.70;99.90
14682;DHT22;7429;52.498;13.480;2023-02-26T16:37:21;2.70;99.90
14682;DHT22;7429;52.498;13.480;2023-02-26T16:40:27;2.70;99.90
14682;DHT22;7429;52.498;13.480;2023-02-26T16:43:49;2.60;99.90
14682;DHT22;7429;52.498;13.480;2023-02-26T16:47:00;2.60;99.90
14682;DHT22;7429;52.498;13.480;2023-02-26T16:50:04;2.50;99.90
14682;DHT22;7429;52.498;13.480;2023-02-26T16:53:18;2.50;99.90
14682;DHT22;7429;52.498;13.480;2023-02-26T16:56:24;2.50;99.90
14682;DHT22;7429;52.498;13.480;2023-02-26T16:59:31;2.50;99.90
14682;DHT22;7429;52.498;13.480;2023-02-26T17:02:40;2.40;99.90
14682;DHT22;7429;52.498;13.480;2023-02-26T17:05:52;2.40;99.90
14682;DHT22;7429;52.498;13.480;2023-02-26T17:08:59;2.30;99.90
14682;DHT22;7429;52.498;13.480;2023-02-26T17:12:10;2.30;99.90
14682;DHT22;7429;52.498;13.480;2023-02-26T17:15:18;2.30;99.90
14682;DHT22;7429;52.498;13.480;2023-02-26T17:18:25;2.30;99.90
14682;DHT22;7429;52.498;13.480;2023-02-26T17:21:29;2.20;99.90
14682;DHT22;7429;52.498;13.480;2023-02-26T17:24:34;2.20;99.90
14682;DHT22;7429;52.498;13.480;2023-02-26T17:27:42;2.20;99.90
14682;DHT22;7429;52.498;13.480;2023-02-26T17:30:45;2.20;99.90
14682;DHT22;7429;52.498;13.480;2023-02-26T17:33:51;2.30;99.90
14682;DHT22;7429;52.498;13.480;2023-02-26T17:36:55;2.30;99.90
14682;DHT22;7429;52.498;13.480;2023-02-26T17:40:00;2.30;99.90
14682;DHT22;7429;52.498;13.480;2023-02-26T17:43:05;2.30;99.90
14682;DHT22;7429;52.498;13.480;2023-02-26T17:46:11;2.30;99.90
14682;DHT22;7429;52.498;13.480;2023-02-26T17:49:15;2.40;99.90
14682;DHT22;7429;52.498;13.480;2023-02-26T17:52:19;2.40;99.90
14682;DHT22;7429;52.498;13.480;2023-02-26T17:55:22;2.30;99.90
14682;DHT22;7429;52.498;13.480;2023-02-26T17:58:27;2.30;99.90
14682;DHT22;7429;52.498;13.480;2023-02-26T18:01:32;2.30;99.90
14682;DHT22;7429;52.498;13.480;2023-02-26T18:04:37;2.30;99.90
14682;DHT22;7429;52.498;13.480;2023-02-26T18:07:40;2.20;99.90
14682;DHT22;7429;52.498;13.480;2023-02-26T18:10:43;2.10;99.90
14682;DHT22;7429;52.498;13.480;2023-02-26T18:13:47;1.90;99.90
14682;DHT22;7429;52.498;13.480;2023-02-26T18:16:50;1.90;99.90
14682;DHT22;7429;52.498;13.480;2023-02-26T18:19:55;1.90;99.90
14682;DHT22;7429;52.498;13.480;2023-02-26T18:22:59;1.80;99.90
14682;DHT22;7429;52.498;13.480;2023-02-26T18:26:02;1.70;99.90
14682;DHT22;7429;52.498;13.480;2023-02-26T18:29:06;1.70;99.90
14682;DHT22;7429;52.498;13.480;2023-02-26T18:32:11;1.60;99.90
14682;DHT22;7429;52.498;13.480;2023-02-26T18:35:17;1.60;99.90
14682;DHT22;7429;52.498;13.480;2023-02-26T18:38:23;1.60;99.90
14682;DHT22;7429;52.498;13.480;2023-02-26T18:41:28;1.50;99.90
14682;DHT22;7429;52.498;13.480;2023-02-26T18:44:33;1.50;99.90
14682;DHT22;7429;52.498;13.480;2023-02-26T18:47:36;1.50;99.90
14682;DHT22;7429;52.498;13.480;2023-02-26T18:50:41;1.40;99.90
14682;DHT22;7429;52.498;13.480;2023-02-26T18:53:45;1.40;99.90
14682;DHT22;7429;52.498;13.480;2023-02-26T18:56:48;1.40;99.90
14682;DHT22;7429;52.498;13.480;2023-02-26T18:59:51;1.30;99.90
14682;DHT22;7429;52.498;13.480;2023-02-26T19:02:54;1.20;99.90
14682;DHT22;7429;52.498;13.480;2023-02-26T19:06:00;1.20;99.90
14682;DHT22;7429;52.498;13.480;2023-02-26T19:09:04;1.10;99.90
14682;DHT22;7429;52.498;13.480;2023-02-26T19:12:07;1.10;99.90
14682;DHT22;7429;52.498;13.480;2023-02-26T19:15:12;1.10;99.90
14682;DHT22;7429;52.498;13.480;2023-02-26T19:18:16;1.10;99.90
14682;DHT22;7429;52.498;13.480;2023-02-26T19:21:20;1.10;99.90
14682;DHT22;7429;52.498;13.480;2023-02-26T19:24:23;1.00;99.90
14682;DHT22;7429;52.498;13.480;2023-02-26T19:27:27;0.90;99.90
14682;DHT22;7429;52.498;13.480;2023-02-26T19:30:30;0.90;99.90
14682;DHT22;7429;52.498;13.480;2023-02-26T19:33:35;0.80;99.90
14682;DHT22;7429;52.498;13.480;2023-02-26T19:36:39;0.70;99.90
14682;DHT22;7429;52.498;13.480;2023-02-26T19:39:48;0.70;99.90
14682;DHT22;7429;52.498;13.480;2023-02-26T19:42:52;0.60;99.90
14682;DHT22;7429;52.498;13.480;2023-02-26T19:45:55;0.70;99.90
14682;DHT22;7429;52.498;13.480;2023-02-26T19:48:59;0.70;99.90
14682;DHT22;7429;52.498;13.480;2023-02-26T19:52:03;0.60;99.90
14682;DHT22;7429;52.498;13.480;2023-02-26T19:55:09;0.60;99.90
14682;DHT22;7429;52.498;13.480;2023-02-26T19:58:14;0.50;99.90
14682;DHT22;7429;52.498;13.480;2023-02-26T20:01:18;0.50;99.90
14682;DHT22;7429;52.498;13.480;2023-02-26T20:04:21;0.50;99.90
14682;DHT22;7429;52.498;13.480;2023-02-26T20:07:25;0.40;99.90
14682;DHT22;7429;52.498;13.480;2023-02-26T20:10:28;0.50;99.90
14682;DHT22;7429;52.498;13.480;2023-02-26T20:13:33;0.40;99.90
14682;DHT22;7429;52.498;13.480;2023-02-26T20:16:37;0.30;99.90
14682;DHT22;7429;52.498;13.480;2023-02-26T20:19:40;0.30;99.90